Time;durP1;ratioP1;P1;durP2;ratioP2;P2;SDS_P1;SDS_P2;PMS_P1;PMS_P2;Temp;Humidity;BMP_temperature;BMP_pressure;BME280_temperature;BME280_humidity;BME280_pressure;Samples;Min_cycle;Max_cycle;Signal;HPM_P1;HPM_P2
2022/05/22 00:02:49;;;;;;;2.42;1.40;;;20.80;80.40;;;;;;12672802;23;20225;-84
2022/05/22 00:07:52;;;;;;;2.70;1.23;;;20.90;80.30;;;;;;12670381;23;20169;-84
2022/05/22 00:12:54;;;;;;;2.05;1.00;;;20.60;80.80;;;;;;12672377;23;20240;-84
2022/05/22 00:17:57;;;;;;;1.20;1.10;;;20.70;80.80;;;;;;12672364;23;20193;-84
2022/05/22 00:22:59;;;;;;;2.17;1.38;;;20.70;80.80;;;;;;12688005;23;20173;-84
2022/05/22 00:28:02;;;;;;;2.75;0.70;;;20.60;81.50;;;;;;12671831;23;20177;-84
2022/05/22 00:33:06;;;;;;;1.52;1.17;;;20.50;81.50;;;;;;12670433;23;20220;-84
2022/05/22 00:38:09;;;;;;;2.88;1.20;;;20.00;82.90;;;;;;12669630;23;20260;-83
2022/05/22 00:43:32;;;;;;;1.25;1.10;;;20.40;81.90;;;;;;12669678;23;20202;-84
2022/05/22 00:48:35;;;;;;;0.70;0.70;;;20.40;81.40;;;;;;12669003;23;20264;-85
2022/05/22 00:53:42;;;;;;;1.67;1.10;;;19.80;83.60;;;;;;12693946;23;20208;-84
2022/05/22 00:58:45;;;;;;;1.73;1.00;;;19.80;83.30;;;;;;12672475;23;20240;-84
2022/05/22 01:03:48;;;;;;;1.13;1.02;;;20.10;82.70;;;;;;12688942;23;20224;-84
2022/05/22 01:08:52;;;;;;;4.22;1.88;;;20.00;82.80;;;;;;12670351;23;20231;-85
2022/05/22 01:14:10;;;;;;;1.08;0.70;;;18.90;82.80;;;;;;12670320;23;20248;-85
2022/05/22 01:19:16;;;;;;;1.30;0.82;;;19.80;84.10;;;;;;12668660;23;20232;-84
2022/05/22 01:24:19;;;;;;;1.55;1.15;;;19.90;83.20;;;;;;12692744;23;20177;-84
2022/05/22 01:29:21;;;;;;;1.00;0.90;;;20.10;82.30;;;;;;12668650;23;20181;-84
2022/05/22 01:34:25;;;;;;;3.17;1.60;;;20.20;82.40;;;;;;12668803;23;20177;-84
2022/05/22 01:39:28;;;;;;;1.50;0.90;;;20.30;81.60;;;;;;12691924;23;20208;-84
2022/05/22 01:44:33;;;;;;;1.75;1.00;;;20.10;82.40;;;;;;12692716;23;20177;-84
2022/05/22 01:49:36;;;;;;;1.23;1.10;;;20.30;81.90;;;;;;12692408;23;20180;-84
2022/05/22 01:54:41;;;;;;;1.10;0.82;;;19.90;82.50;;;;;;12692115;23;20189;-84
2022/05/22 01:59:43;;;;;;;1.10;1.00;;;20.10;82.20;;;;;;12667524;23;20200;-84
2022/05/22 02:04:54;;;;;;;1.65;0.98;;;20.00;82.40;;;;;;12691197;23;20181;-85
2022/05/22 02:09:57;;;;;;;2.35;1.25;;;20.00;82.50;;;;;;12667092;23;20640;-84
2022/05/22 02:15:01;;;;;;;1.30;0.80;;;20.10;82.30;;;;;;12692339;23;20177;-84
2022/05/22 02:20:06;;;;;;;1.48;1.38;;;20.40;81.40;;;;;;12669801;23;20282;-84
2022/05/22 02:25:18;;;;;;;0.88;0.85;;;20.40;81.30;;;;;;12668378;23;20236;-84
2022/05/22 02:30:33;;;;;;;2.53;0.90;;;20.30;81.30;;;;;;12692470;23;20244;-84
2022/05/22 02:35:37;;;;;;;1.85;1.10;;;20.10;81.70;;;;;;12692094;23;20196;-84
2022/05/22 02:40:47;;;;;;;2.28;1.30;;;20.20;81.70;;;;;;12668245;23;20232;-84
2022/05/22 02:45:49;;;;;;;1.70;1.10;;;20.20;81.60;;;;;;12691413;23;20185;-84
2022/05/22 02:50:53;;;;;;;1.50;1.05;;;20.20;81.70;;;;;;12642819;23;20177;-84
2022/05/22 02:56:13;;;;;;;2.25;0.93;;;20.00;82.00;;;;;;12643016;23;20180;-84
2022/05/22 03:01:41;;;;;;;2.65;1.15;;;20.10;81.90;;;;;;12667901;23;20208;-84
2022/05/22 03:06:43;;;;;;;2.88;1.20;;;20.30;81.30;;;;;;12642789;23;20180;-84
2022/05/22 03:11:46;;;;;;;2.47;1.10;;;20.20;81.40;;;;;;12642834;23;20188;-84
2022/05/22 03:16:50;;;;;;;2.00;1.25;;;20.30;80.90;;;;;;12673325;23;20201;-84
2022/05/22 03:22:01;;;;;;;1.35;0.80;;;20.40;81.10;;;;;;12696101;23;20235;-84
2022/05/22 03:27:10;;;;;;;1.15;0.90;;;20.50;80.20;;;;;;12646012;23;20265;-84
2022/05/22 03:32:13;;;;;;;2.55;1.33;;;20.50;79.90;;;;;;12647040;23;20251;-84
2022/05/22 03:37:16;;;;;;;1.15;0.93;;;20.60;79.80;;;;;;12693820;23;20201;-84
2022/05/22 03:42:19;;;;;;;1.42;0.98;;;20.50;79.60;;;;;;12694310;23;20189;-84
2022/05/22 03:47:21;;;;;;;1.52;1.10;;;20.60;79.50;;;;;;12688680;23;20490;-84
2022/05/22 03:52:38;;;;;;;5.40;1.40;;;20.60;79.20;;;;;;12670343;23;20213;-84
2022/05/22 03:57:47;;;;;;;3.80;1.27;;;20.60;79.20;;;;;;12693618;23;20232;-84
2022/05/22 04:02:51;;;;;;;4.70;1.92;;;20.60;79.30;;;;;;12670032;23;20232;-84
2022/05/22 04:07:55;;;;;;;1.40;1.30;;;19.90;79.20;;;;;;12693954;23;20216;-84
2022/05/22 04:13:10;;;;;;;1.45;1.05;;;20.40;79.50;;;;;;12673387;23;20263;-84
2022/05/22 04:18:14;;;;;;;1.20;0.98;;;20.60;79.20;;;;;;12693123;23;20366;-84
2022/05/22 04:28:38;;;;;;;1.30;1.20;;;20.20;79.80;;;;;;12693435;23;20185;-84
2022/05/22 04:33:50;;;;;;;1.67;1.20;;;20.30;79.60;;;;;;12669182;23;20185;-84
2022/05/22 04:38:52;;;;;;;1.83;1.48;;;20.50;79.00;;;;;;12669379;23;20208;-84
2022/05/22 04:43:56;;;;;;;2.20;1.13;;;20.30;78.50;;;;;;12668747;23;20181;-85
2022/05/22 04:49:00;;;;;;;2.55;1.25;;;19.80;80.20;;;;;;12668759;23;20188;-85
2022/05/22 04:54:03;;;;;;;3.50;1.10;;;20.10;79.80;;;;;;12668434;23;20240;-85
2022/05/22 04:59:13;;;;;;;1.42;1.33;;;19.40;81.70;;;;;;12693080;23;20252;-85
2022/05/22 05:04:16;;;;;;;1.55;0.90;;;20.20;80.00;;;;;;12692179;23;20716;-85
2022/05/22 05:09:27;;;;;;;2.13;1.20;;;20.10;79.90;;;;;;12668765;23;20200;-85
2022/05/22 05:14:29;;;;;;;1.67;1.40;;;20.30;78.80;;;;;;12669052;23;20197;-85
2022/05/22 05:19:32;;;;;;;2.10;1.33;;;20.60;78.60;;;;;;12692564;23;20197;-85
2022/05/22 05:24:34;;;;;;;1.70;1.27;;;20.20;80.20;;;;;;12668595;23;20228;-85
2022/05/22 05:29:38;;;;;;;3.13;1.17;;;20.70;78.50;;;;;;12668327;23;20177;-85
2022/05/22 05:34:41;;;;;;;3.25;2.13;;;20.50;78.70;;;;;;12668462;23;20236;-85
2022/05/22 05:39:52;;;;;;;2.65;1.63;;;20.20;78.40;;;;;;12692372;23;20217;-86
2022/05/22 05:45:05;;;;;;;1.23;1.13;;;19.70;79.40;;;;;;12692850;23;20266;-85
2022/05/22 05:50:26;;;;;;;1.75;0.90;;;19.20;83.90;;;;;;12667893;23;20181;-85
2022/05/22 05:55:43;;;;;;;4.32;1.45;;;20.20;80.30;;;;;;12667661;23;20189;-85
2022/05/22 06:01:17;;;;;;;2.15;1.10;;;18.60;86.00;;;;;;12690257;23;20267;-85
2022/05/22 06:06:20;;;;;;;1.25;1.00;;;20.40;80.00;;;;;;12668312;23;20533;-85
2022/05/22 06:11:24;;;;;;;1.65;1.10;;;20.00;80.40;;;;;;12667275;23;20537;-84
2022/05/22 06:16:30;;;;;;;1.88;1.25;;;20.40;79.40;;;;;;12690523;23;20576;-85
2022/05/22 06:21:43;;;;;;;1.85;1.48;;;18.50;84.90;;;;;;12690997;23;20209;-85
2022/05/22 06:26:47;;;;;;;1.33;1.23;;;18.40;85.60;;;;;;12668091;23;20636;-85
2022/05/22 06:32:10;;;;;;;2.15;1.20;;;;;;;;;;12681318;23;20169;-85
2022/05/22 06:37:38;;;;;;;2.67;1.77;;;17.70;90.10;;;;;;12668733;23;20668;-85
2022/05/22 06:43:01;;;;;;;7.05;2.33;;;19.50;81.50;;;;;;12668459;23;20185;-84
2022/05/22 06:48:20;;;;;;;5.03;1.60;;;19.70;81.30;;;;;;12639502;23;20243;-84
2022/05/22 06:53:41;;;;;;;3.38;1.25;;;18.80;86.50;;;;;;12664003;23;20181;-84
2022/05/22 06:59:02;;;;;;;1.20;1.10;;;19.30;84.80;;;;;;12670603;23;20196;-84
2022/05/22 07:04:40;;;;;;;6.13;1.92;;;19.70;83.10;;;;;;12621845;23;20245;-84
2022/05/22 07:10:11;;;;;;;1.65;1.27;;;19.70;82.90;;;;;;12596247;23;20839;-84
2022/05/22 07:15:40;;;;;;;1.92;1.15;;;20.00;81.60;;;;;;12576732;23;20186;-86
2022/05/22 07:20:58;;;;;;;3.25;1.65;;;19.60;82.80;;;;;;12592943;23;20201;-86
2022/05/22 07:26:08;;;;;;;2.88;2.17;;;18.40;85.30;;;;;;12577235;23;20181;-85
2022/05/22 07:31:15;;;;;;;4.95;2.03;;;16.90;89.70;;;;;;12621768;23;20925;-86
2022/05/22 07:36:43;;;;;;;3.28;1.63;;;17.80;93.80;;;;;;12626076;23;20209;-85
2022/05/22 07:42:09;;;;;;;1.75;1.30;;;20.00;88.40;;;;;;12622312;23;20245;-85
2022/05/22 07:47:51;;;;;;;3.55;1.80;;;20.20;83.90;;;;;;12384459;24;20244;-85
2022/05/22 07:53:10;;;;;;;1.25;1.15;;;18.80;88.70;;;;;;12367049;24;20176;-85
2022/05/22 07:58:12;;;;;;;2.10;1.73;;;19.70;85.60;;;;;;12382641;24;20189;-85
2022/05/22 08:03:47;;;;;;;1.43;1.10;;;18.80;87.10;;;;;;12310903;24;20245;-86
2022/05/22 08:09:09;;;;;;;1.33;0.88;;;20.50;82.40;;;;;;12309878;23;20188;-85
2022/05/22 08:14:12;;;;;;;3.05;2.20;;;20.60;80.20;;;;;;12309397;24;20265;-85
2022/05/22 08:19:18;;;;;;;1.60;1.10;;;19.20;82.50;;;;;;12388859;23;20192;-84
2022/05/22 08:24:49;;;;;;;2.22;1.77;;;20.20;81.80;;;;;;12410820;23;20653;-84
2022/05/22 08:29:55;;;;;;;1.58;0.90;;;20.40;79.80;;;;;;12424307;23;20527;-83
2022/05/22 08:35:00;;;;;;;1.38;1.20;;;20.90;79.00;;;;;;12423389;23;20188;-84
2022/05/22 08:40:04;;;;;;;0.95;0.95;;;21.10;78.00;;;;;;12638358;23;20204;-84
2022/05/22 08:45:18;;;;;;;1.27;1.10;;;20.80;78.50;;;;;;12688081;23;20220;-84
2022/05/22 08:50:23;;;;;;;1.80;1.25;;;20.90;78.10;;;;;;12621544;23;20221;-84
2022/05/22 09:01:25;;;;;;;2.03;1.25;;;19.50;78.70;;;;;;12427047;23;20204;-83
2022/05/22 09:06:45;;;;;;;1.00;0.98;;;19.90;78.90;;;;;;12425913;23;20184;-83
2022/05/22 09:12:11;;;;;;;2.17;1.33;;;19.60;82.80;;;;;;12431000;23;20516;-84
2022/05/22 09:17:30;;;;;;;1.92;1.15;;;20.20;79.80;;;;;;12435753;23;20216;-83
2022/05/22 09:22:46;;;;;;;1.60;0.90;;;20.90;78.00;;;;;;12402409;23;20247;-84
2022/05/22 09:28:21;;;;;;;1.67;1.00;;;20.80;75.90;;;;;;12429787;23;20518;-84
2022/05/22 09:33:47;;;;;;;1.50;1.08;;;20.10;78.70;;;;;;12192131;24;20252;-83
2022/05/22 09:39:17;;;;;;;1.88;0.88;;;20.80;77.70;;;;;;12417751;23;20239;-84
2022/05/22 09:44:25;;;;;;;1.73;1.33;;;20.60;75.10;;;;;;12422704;23;20180;-84
2022/05/22 09:50:12;;;;;;;3.10;1.40;;;17.60;84.00;;;;;;12421202;23;20552;-84
2022/05/22 09:55:39;;;;;;;2.10;1.55;;;18.20;91.40;;;;;;12430385;23;20295;-83
2022/05/22 10:01:13;;;;;;;1.30;1.20;;;19.50;84.90;;;;;;12417430;23;20208;-84
2022/05/22 10:06:54;;;;;;;1.17;1.08;;;19.90;82.30;;;;;;12484286;23;20177;-83
2022/05/22 10:11:59;;;;;;;2.78;1.55;;;19.50;84.70;;;;;;12613635;23;20243;-84
2022/05/22 10:17:36;;;;;;;1.30;1.20;;;19.40;80.90;;;;;;12683239;23;20640;-84
2022/05/22 10:23:16;;;;;;;2.42;1.30;;;19.50;85.80;;;;;;12682172;23;20192;-84
2022/05/22 10:28:22;;;;;;;1.63;1.08;;;20.50;81.70;;;;;;12632168;23;20727;-84
2022/05/22 10:33:54;;;;;;;1.30;1.05;;;20.70;81.70;;;;;;12661208;23;20169;-84
2022/05/22 10:39:07;;;;;;;1.08;0.98;;;20.50;82.40;;;;;;12642019;23;20204;-84
2022/05/22 10:44:13;;;;;;;3.65;1.67;;;20.80;84.20;;;;;;12646027;23;20173;-83
2022/05/22 10:49:18;;;;;;;24.33;10.23;;;18.10;91.10;;;;;;12667275;23;20628;-84
2022/05/22 10:54:25;;;;;;;15.57;5.90;;;19.10;93.10;;;;;;12667284;23;20177;-84
2022/05/22 10:59:30;;;;;;;8.93;3.67;;;19.90;89.10;;;;;;12669818;23;20573;-84
2022/05/22 11:04:37;;;;;;;10.40;4.72;;;19.10;88.40;;;;;;12658863;23;20173;-83
2022/05/22 11:09:47;;;;;;;12.18;5.18;;;19.80;86.90;;;;;;12696870;23;20208;-80
2022/05/22 11:14:50;;;;;;;12.07;4.82;;;19.90;87.20;;;;;;12700240;23;20176;-80
2022/05/22 11:19:58;;;;;;;14.07;5.25;;;20.40;85.30;;;;;;12699994;23;20204;-80
2022/05/22 11:25:33;;;;;;;3.05;2.00;;;20.90;86.90;;;;;;12700081;23;20635;-80
2022/05/22 11:30:36;;;;;;;11.30;4.68;;;;;;;;;;12719665;23;20168;-80
2022/05/22 11:36:01;;;;;;;8.45;4.50;;;20.90;78.30;;;;;;12702837;23;20172;-80
2022/05/22 11:41:30;;;;;;;6.65;2.40;;;20.90;78.80;;;;;;12747357;23;20204;-83
2022/05/22 11:46:49;;;;;;;4.80;3.03;;;19.10;82.10;;;;;;12725790;23;20242;-83
2022/05/22 11:52:10;;;;;;;12.57;4.75;;;19.10;83.90;;;;;;12738031;23;20201;-83
2022/05/22 11:57:39;;;;;;;9.30;3.90;;;19.90;81.70;;;;;;12731229;23;20196;-83
2022/05/22 12:03:03;;;;;;;7.50;3.53;;;20.10;79.50;;;;;;12730730;23;20266;-83
2022/05/22 12:08:16;;;;;;;6.45;3.38;;;20.00;81.80;;;;;;12730513;23;20828;-83
2022/05/22 12:13:37;;;;;;;7.10;3.95;;;20.30;79.30;;;;;;12728713;23;20185;-83
2022/05/22 12:18:42;;;;;;;2.33;1.50;;;20.80;78.50;;;;;;12748413;23;20238;-83
2022/05/22 12:24:05;;;;;;;3.80;1.80;;;19.50;77.40;;;;;;12728963;23;20177;-83
2022/05/22 12:29:25;;;;;;;7.07;3.47;;;20.10;77.30;;;;;;12735381;23;20534;-85
2022/05/22 12:35:00;;;;;;;3.22;2.80;;;20.60;78.60;;;;;;12728142;23;20212;-83
2022/05/22 12:40:17;;;;;;;5.22;3.40;;;19.90;78.70;;;;;;12603346;23;20205;-83
2022/05/22 12:45:23;;;;;;;5.50;1.98;;;19.80;81.30;;;;;;12622346;23;20173;-83
2022/05/22 12:50:51;;;;;;;3.58;1.85;;;19.50;79.30;;;;;;12604928;23;20178;-84
2022/05/22 12:55:54;;;;;;;4.63;2.75;;;17.80;85.60;;;;;;12604759;23;20229;-83
2022/05/22 13:00:56;;;;;;;2.78;1.67;;;17.90;87.60;;;;;;12604780;23;20637;-83
2022/05/22 13:06:16;;;;;;;1.27;1.17;;;18.80;83.30;;;;;;12580819;23;20217;-83
2022/05/22 13:11:23;;;;;;;3.10;1.60;;;;;;;;;;12619776;23;20177;-83
2022/05/22 13:16:48;;;;;;;1.90;1.37;;;17.50;84.40;;;;;;12728626;23;20244;-83
2022/05/22 13:21:56;;;;;;;4.72;1.85;;;18.30;82.50;;;;;;12731346;23;20496;-83
2022/05/22 13:27:08;;;;;;;6.72;4.15;;;18.20;81.30;;;;;;12729419;23;20180;-83
2022/05/22 13:32:34;;;;;;;4.47;2.07;;;17.70;83.90;;;;;;12748760;23;20560;-83
2022/05/22 13:37:37;;;;;;;1.90;1.30;;;17.80;85.80;;;;;;12730195;23;20200;-83
2022/05/22 13:43:07;;;;;;;1.50;1.10;;;17.30;84.00;;;;;;12729774;23;20579;-83
2022/05/22 13:48:34;;;;;;;2.73;1.87;;;17.60;84.00;;;;;;12728877;23;20168;-83
2022/05/22 13:54:05;;;;;;;2.10;1.48;;;17.10;84.90;;;;;;12729023;23;20200;-83
2022/05/22 13:59:24;;;;;;;1.60;1.30;;;17.00;86.00;;;;;;12726082;23;20197;-83
2022/05/22 14:04:27;;;;;;;3.10;2.80;;;17.20;85.50;;;;;;12745251;23;20235;-83
2022/05/22 14:09:33;;;;;;;2.77;1.83;;;18.00;88.90;;;;;;12728118;23;20717;-83
2022/05/22 14:14:36;;;;;;;4.00;2.90;;;18.00;85.20;;;;;;12732223;23;20686;-83
2022/05/22 14:19:42;;;;;;;1.98;1.35;;;18.30;87.00;;;;;;12727596;23;20200;-83
2022/05/22 14:24:54;;;;;;;1.90;1.02;;;18.30;80.10;;;;;;12729252;23;20168;-84
2022/05/22 14:30:25;;;;;;;2.38;2.10;;;18.60;82.60;;;;;;12727482;23;20266;-82
2022/05/22 14:35:43;;;;;;;1.98;1.20;;;19.00;84.60;;;;;;12721234;23;20239;-82
2022/05/22 14:40:56;;;;;;;3.25;1.90;;;18.40;79.10;;;;;;12730914;23;20196;-82
2022/05/22 14:46:00;;;;;;;1.42;1.27;;;18.30;82.50;;;;;;12728795;23;20168;-82
2022/05/22 14:51:24;;;;;;;2.42;1.02;;;17.80;79.40;;;;;;12728262;23;20172;-82
2022/05/22 14:56:27;;;;;;;3.05;2.13;;;17.90;82.70;;;;;;12727907;23;20742;-83
2022/05/22 15:02:02;;;;;;;2.42;1.77;;;18.90;82.60;;;;;;12727394;23;20547;-82
2022/05/22 15:07:18;;;;;;;4.80;1.15;;;19.20;77.50;;;;;;12600056;23;20740;-82
2022/05/22 15:12:37;;;;;;;2.47;2.13;;;19.60;78.10;;;;;;12608178;23;20181;-83
2022/05/22 15:17:53;;;;;;;3.28;2.10;;;18.50;84.90;;;;;;12612688;23;20181;-83
2022/05/22 15:28:21;;;;;;;3.90;2.65;;;18.30;82.20;;;;;;12614717;23;20345;-83
2022/05/22 15:33:27;;;;;;;2.72;1.55;;;19.50;82.70;;;;;;12624915;23;20587;-83
2022/05/22 15:38:49;;;;;;;2.08;1.50;;;19.30;79.40;;;;;;12619588;23;20202;-83
2022/05/22 15:44:03;;;;;;;1.15;0.90;;;18.50;80.90;;;;;;12698981;23;20239;-83
2022/05/22 15:54:33;;;;;;;2.38;1.60;;;19.30;83.40;;;;;;12735183;23;20180;-83
2022/05/22 15:59:36;;;;;;;2.95;2.20;;;19.50;78.20;;;;;;12735260;23;20508;-83
2022/05/22 16:04:40;;;;;;;3.63;2.05;;;19.60;82.10;;;;;;12735507;23;20165;-83
2022/05/22 16:09:42;;;;;;;2.17;1.98;;;19.90;79.20;;;;;;12731561;23;20243;-82
2022/05/22 16:14:45;;;;;;;0.95;0.95;;;19.70;80.40;;;;;;12735917;23;20172;-82
2022/05/22 16:19:58;;;;;;;3.00;1.55;;;20.20;74.30;;;;;;12730915;23;20224;-83
2022/05/22 16:25:03;;;;;;;3.65;2.00;;;20.20;75.20;;;;;;12772494;23;20164;-83
2022/05/22 16:30:08;;;;;;;3.60;2.22;;;20.20;78.00;;;;;;12729763;23;20176;-83
2022/05/22 16:35:25;;;;;;;2.38;1.50;;;19.90;79.40;;;;;;12746633;23;20169;-82
2022/05/22 16:40:27;;;;;;;1.95;1.80;;;20.40;77.60;;;;;;12734760;23;20197;-83
2022/05/22 16:45:34;;;;;;;2.78;2.25;;;20.40;78.10;;;;;;12730211;23;20172;-83
2022/05/22 16:56:03;;;;;;;1.88;0.80;;;19.00;79.30;;;;;;12754002;23;20185;-82
2022/05/22 17:01:07;;;;;;;1.30;0.73;;;19.10;78.20;;;;;;12730184;23;20271;-82
2022/05/22 17:06:13;;;;;;;4.53;1.02;;;19.50;77.20;;;;;;12729975;23;20489;-83
2022/05/22 17:11:29;;;;;;;1.50;1.00;;;19.70;76.80;;;;;;12729379;23;20188;-83
2022/05/22 17:16:33;;;;;;;2.75;1.15;;;19.50;77.40;;;;;;12748211;23;20172;-82
2022/05/22 17:21:38;;;;;;;1.70;1.00;;;19.90;76.80;;;;;;12747569;23;20238;-82
2022/05/22 17:26:42;;;;;;;1.58;0.95;;;19.90;76.30;;;;;;12753627;23;20322;-82
2022/05/22 17:31:45;;;;;;;1.33;1.13;;;20.10;76.10;;;;;;12728506;23;20189;-84
2022/05/22 17:36:50;;;;;;;1.55;1.10;;;19.90;77.30;;;;;;12729181;23;20567;-82
2022/05/22 17:41:53;;;;;;;2.72;1.30;;;19.70;78.90;;;;;;12769401;23;20188;-83
2022/05/22 17:46:56;;;;;;;3.10;0.93;;;19.70;77.20;;;;;;12730334;23;20172;-83
2022/05/22 17:51:59;;;;;;;1.38;1.25;;;19.10;79.30;;;;;;12753570;23;20238;-83
2022/05/22 17:57:02;;;;;;;2.45;1.17;;;19.20;80.80;;;;;;12728444;23;20181;-83
2022/05/22 18:02:05;;;;;;;2.63;1.30;;;19.30;80.10;;;;;;12728484;23;20666;-83
2022/05/22 18:07:24;;;;;;;1.63;1.00;;;19.10;80.60;;;;;;12730274;23;20165;-83
2022/05/22 18:17:50;;;;;;;7.63;5.30;;;19.30;79.70;;;;;;12745737;23;20608;-83
2022/05/22 18:22:53;;;;;;;8.05;3.67;;;19.40;79.90;;;;;;12744394;23;20188;-83
2022/05/22 18:28:10;;;;;;;4.72;1.70;;;18.30;82.70;;;;;;12751803;23;20173;-83
2022/05/22 18:33:14;;;;;;;2.70;1.10;;;18.90;79.90;;;;;;12747846;23;20524;-82
2022/05/22 18:38:17;;;;;;;1.40;1.27;;;19.00;79.30;;;;;;12726157;23;20547;-82
2022/05/22 18:43:25;;;;;;;4.70;2.30;;;18.70;79.80;;;;;;12726380;23;20200;-82
2022/05/22 18:48:30;;;;;;;1.10;1.00;;;18.50;80.50;;;;;;12740984;23;20168;-82
2022/05/22 18:53:33;;;;;;;3.25;1.20;;;18.50;80.80;;;;;;12729466;23;20173;-82
2022/05/22 18:58:36;;;;;;;1.98;1.30;;;17.00;86.20;;;;;;12728843;23;20192;-83
2022/05/22 19:03:39;;;;;;;3.78;1.50;;;16.80;87.50;;;;;;12729651;23;20192;-83
2022/05/22 19:08:42;;;;;;;5.38;2.92;;;16.30;90.60;;;;;;12729519;23;20169;-83
2022/05/22 19:13:56;;;;;;;8.27;6.28;;;15.50;93.50;;;;;;12728793;23;20597;-83
2022/05/22 19:19:00;;;;;;;8.40;5.30;;;14.40;99.90;;;;;;12727779;23;20224;-82
2022/05/22 19:24:05;;;;;;;6.90;4.47;;;14.40;99.90;;;;;;12743865;23;20577;-82
2022/05/22 19:29:14;;;;;;;4.70;3.60;;;14.30;99.90;;;;;;12749267;23;20189;-83
2022/05/22 19:34:19;;;;;;;3.57;3.20;;;13.80;99.90;;;;;;12744191;23;20242;-83
2022/05/22 19:39:26;;;;;;;8.13;3.23;;;13.20;99.90;;;;;;12724713;23;20204;-83
2022/05/22 19:44:41;;;;;;;8.57;5.43;;;14.00;99.90;;;;;;12751018;23;20263;-83
2022/05/22 19:49:47;;;;;;;4.78;3.47;;;14.40;99.90;;;;;;12745459;23;20164;-83
2022/05/22 20:00:21;;;;;;;17.17;8.18;;;14.30;99.90;;;;;;12752873;23;20598;-82
2022/05/22 20:05:34;;;;;;;5.88;3.17;;;13.50;99.90;;;;;;12749157;23;20165;-82
2022/05/22 20:10:37;;;;;;;5.50;4.27;;;12.70;99.90;;;;;;12731292;23;20647;-82
2022/05/22 20:15:41;;;;;;;12.00;7.37;;;;;;;;;;12754356;23;20247;-83
2022/05/22 20:20:45;;;;;;;16.40;9.10;;;11.50;99.90;;;;;;12753819;23;20200;-83
2022/05/22 20:25:49;;;;;;;24.77;14.23;;;13.40;99.90;;;;;;12750197;23;20164;-83
2022/05/22 20:30:53;;;;;;;11.93;6.87;;;12.60;99.90;;;;;;12746729;23;20192;-83
2022/05/22 20:35:56;;;;;;;16.63;10.57;;;12.90;99.90;;;;;;12753800;23;20235;-83
2022/05/22 20:40:59;;;;;;;8.33;5.83;;;12.70;99.90;;;;;;12728306;23;20200;-83
2022/05/22 20:46:02;;;;;;;11.83;7.23;;;13.40;99.90;;;;;;12746432;23;20165;-83
2022/05/22 20:51:05;;;;;;;19.23;9.83;;;13.10;99.90;;;;;;12728993;23;20228;-83
2022/05/22 20:56:49;;;;;;;12.60;8.80;;;12.90;99.90;;;;;;12730081;23;20172;-83
2022/05/22 21:01:54;;;;;;;10.83;6.93;;;12.50;99.90;;;;;;12600853;23;20779;-83
2022/05/22 21:07:01;;;;;;;9.40;5.97;;;12.10;99.90;;;;;;12577479;23;20181;-83
2022/05/22 21:12:04;;;;;;;9.47;5.90;;;12.10;99.90;;;;;;12583851;23;20290;-83
2022/05/22 21:17:07;;;;;;;7.43;4.70;;;12.20;99.90;;;;;;12576248;23;20181;-83
2022/05/22 21:22:10;;;;;;;5.87;5.10;;;12.40;99.90;;;;;;12599502;23;20205;-83
2022/05/22 21:32:38;;;;;;;9.67;5.00;;;11.70;99.90;;;;;;12600858;23;20200;-83
2022/05/22 21:37:40;;;;;;;5.20;4.40;;;11.60;99.90;;;;;;12689837;23;20200;-83
2022/05/22 21:42:45;;;;;;;5.03;4.03;;;11.20;99.90;;;;;;12727069;23;20255;-84
2022/05/22 21:47:47;;;;;;;5.80;4.50;;;11.30;99.90;;;;;;12727334;23;20176;-84
2022/05/22 21:52:50;;;;;;;7.90;4.47;;;11.40;99.90;;;;;;12727280;23;20656;-84
2022/05/22 21:57:56;;;;;;;7.67;4.90;;;11.70;99.90;;;;;;12740099;23;20199;-84
2022/05/22 22:02:58;;;;;;;5.40;4.73;;;11.50;99.90;;;;;;12727424;23;20185;-84
2022/05/22 22:08:01;;;;;;;6.83;4.97;;;11.50;99.90;;;;;;12728811;23;20177;-84
2022/05/22 22:13:03;;;;;;;11.77;5.60;;;11.30;99.90;;;;;;12772246;23;20179;-84
2022/05/22 22:18:06;;;;;;;13.37;7.50;;;10.90;99.90;;;;;;12749275;23;20231;-84
2022/05/22 22:23:09;;;;;;;10.37;6.27;;;10.70;99.90;;;;;;12749353;23;20744;-83
2022/05/22 22:28:11;;;;;;;21.23;5.77;;;10.80;99.90;;;;;;12749213;23;20977;-83
2022/05/22 22:33:16;;;;;;;10.07;5.60;;;11.40;99.90;;;;;;12749866;23;20180;-83
2022/05/22 22:38:18;;;;;;;7.77;4.90;;;10.90;99.90;;;;;;12747816;23;21075;-83
2022/05/22 22:43:26;;;;;;;9.73;5.87;;;10.80;99.90;;;;;;12749675;23;20202;-83
2022/05/22 22:48:29;;;;;;;8.03;5.33;;;10.40;99.90;;;;;;12750754;23;20176;-83
2022/05/22 22:58:54;;;;;;;7.83;5.47;;;10.90;99.90;;;;;;12750387;23;20238;-82
2022/05/22 23:03:57;;;;;;;8.80;5.23;;;11.00;99.90;;;;;;12750095;23;20199;-83
2022/05/22 23:09:01;;;;;;;7.87;6.07;;;10.90;99.90;;;;;;12773342;23;20227;-83
2022/05/22 23:14:04;;;;;;;6.87;5.10;;;10.30;99.90;;;;;;12750610;23;20514;-83
2022/05/22 23:19:06;;;;;;;7.43;5.20;;;10.00;99.90;;;;;;12750118;23;20187;-83
2022/05/22 23:24:09;;;;;;;5.67;4.93;;;10.30;99.90;;;;;;12749673;23;20265;-83
2022/05/22 23:29:12;;;;;;;4.50;4.07;;;10.60;99.90;;;;;;12748979;23;20207;-83
2022/05/22 23:34:14;;;;;;;6.17;5.00;;;10.50;99.90;;;;;;12754815;23;20694;-83
2022/05/22 23:39:20;;;;;;;10.93;3.93;;;10.90;99.90;;;;;;12742395;23;20850;-83
2022/05/22 23:44:25;;;;;;;5.57;4.27;;;10.70;99.90;;;;;;12754609;23;20275;-83
2022/05/22 23:49:27;;;;;;;5.83;4.43;;;10.50;99.90;;;;;;12753489;23;20180;-83
2022/05/22 23:54:38;;;;;;;5.73;5.07;;;9.90;99.90;;;;;;12753694;23;20751;-83
2022/05/22 23:59:41;;;;;;;4.43;3.67;;;9.90;99.90;;;;;;12738550;23;20188;-83
